Time;durP1;ratioP1;P1;durP2;ratioP2;P2;SDS_P1;SDS_P2;PMS_P1;PMS_P2;Temp;Humidity;BMP_temperature;BMP_pressure;BME280_temperature;BME280_humidity;BME280_pressure;Samples;Min_cycle;Max_cycle;Signal;HPM_P1;HPM_P2
2022/11/18 00:02:10;;;;;;;11.15;2.40;;;;;;;6.06;100.00;93870.09;4973969;28;20090;-71
2022/11/18 00:04:36;;;;;;;6.93;2.10;;;;;;;5.97;100.00;93866.53;4971867;28;20047;-71
2022/11/18 00:07:01;;;;;;;5.30;2.20;;;;;;;5.98;100.00;93862.88;4972468;28;20047;-71
2022/11/18 00:09:27;;;;;;;6.47;2.28;;;;;;;5.94;100.00;93858.47;4973547;28;20489;-71
2022/11/18 00:14:36;;;;;;;5.40;2.37;;;;;;;5.91;100.00;93846.75;4968604;28;20106;-72
2022/11/18 00:17:03;;;;;;;4.25;2.17;;;;;;;5.88;100.00;93847.31;4973973;28;20047;-73
2022/11/18 00:19:32;;;;;;;8.75;2.20;;;;;;;5.84;100.00;93841.09;4973627;28;20043;-72
2022/11/18 00:21:57;;;;;;;4.10;2.03;;;;;;;5.87;100.00;93846.50;4962461;28;20039;-72
2022/11/18 00:24:24;;;;;;;4.75;2.05;;;;;;;5.90;100.00;93834.72;4970638;28;20053;-71
2022/11/18 00:26:50;;;;;;;4.35;2.10;;;;;;;5.87;100.00;93835.28;4964599;28;20078;-72
2022/11/18 00:29:16;;;;;;;4.53;1.77;;;;;;;5.77;100.00;93840.66;4973151;28;20389;-70
2022/11/18 00:31:42;;;;;;;6.05;2.20;;;;;;;5.83;100.00;93834.28;4972288;28;20054;-69
2022/11/18 00:34:11;;;;;;;4.03;1.95;;;;;;;5.75;100.00;93840.94;4970474;28;20039;-70
2022/11/18 00:36:37;;;;;;;4.65;1.75;;;;;;;5.78;100.00;93834.38;4969667;28;20065;-69
2022/11/18 00:39:03;;;;;;;4.82;2.20;;;;;;;5.81;100.00;93836.44;4972223;28;20035;-70
2022/11/18 00:42:49;;;;;;;4.85;2.00;;;;;;;5.69;100.00;93835.00;4971093;28;20050;-71
2022/11/18 00:44:14;;;;;;;3.90;1.95;;;;;;;5.62;100.00;93823.34;4973002;28;20050;-74
2022/11/18 00:46:40;;;;;;;5.15;2.22;;;;;;;5.61;100.00;93827.78;4972984;28;20046;-74
2022/11/18 00:49:06;;;;;;;4.18;1.92;;;;;;;5.66;100.00;93819.91;4971006;28;20408;-71
2022/11/18 00:51:32;;;;;;;4.03;2.00;;;;;;;5.61;100.00;93816.56;4959310;28;20042;-71
2022/11/18 00:53:57;;;;;;;3.55;2.10;;;;;;;5.61;100.00;93819.94;4974520;28;20054;-71
2022/11/18 00:56:23;;;;;;;3.92;1.77;;;;;;;5.61;100.00;93811.34;4958257;28;20039;-71
2022/11/18 00:58:48;;;;;;;5.13;1.90;;;;;;;5.68;100.00;93812.53;4961479;28;20094;-72
2022/11/18 01:01:14;;;;;;;5.70;1.90;;;;;;;5.59;100.00;93816.84;4970963;28;20049;-71
2022/11/18 01:03:39;;;;;;;3.72;1.70;;;;;;;5.66;100.00;93809.44;4972327;28;20038;-71
2022/11/18 01:06:05;;;;;;;3.60;1.60;;;;;;;5.62;100.00;93812.91;4969996;28;20069;-72
2022/11/18 01:08:30;;;;;;;4.00;1.80;;;;;;;5.63;100.00;93815.22;4970836;28;20043;-72
2022/11/18 01:13:17;;;;;;;3.63;2.00;;;;;;;5.64;100.00;93822.00;4968293;28;20046;-72
2022/11/18 01:13:41;;;;;;;4.97;1.70;;;;;;;5.59;100.00;93808.22;4971969;28;20050;-72
2022/11/18 01:16:07;;;;;;;3.55;1.70;;;;;;;5.51;100.00;93801.78;4972178;28;20076;-72
2022/11/18 01:18:32;;;;;;;4.90;1.95;;;;;;;5.53;100.00;93799.66;4972748;28;20069;-72
2022/11/18 01:21:02;;;;;;;5.63;2.20;;;;;;;5.54;100.00;93801.25;4967543;28;20039;-71
2022/11/18 01:23:28;;;;;;;6.88;2.28;;;;;;;5.46;100.00;93788.81;4972213;28;20042;-73
2022/11/18 01:25:54;;;;;;;3.58;2.08;;;;;;;5.46;100.00;93794.00;4961463;28;20073;-72
2022/11/18 01:28:20;;;;;;;4.28;2.10;;;;;;;5.50;100.00;93795.00;4961986;28;20503;-72
2022/11/18 01:30:45;;;;;;;4.60;1.88;;;;;;;5.44;100.00;93780.50;4971568;28;20034;-72
2022/11/18 01:33:11;;;;;;;5.00;2.10;;;;;;;5.46;100.00;93775.75;4972085;28;20580;-74
2022/11/18 01:35:39;;;;;;;4.72;1.70;;;;;;;5.47;100.00;93769.50;4969385;28;20043;-71
2022/11/18 01:38:06;;;;;;;4.70;1.90;;;;;;;5.46;100.00;93770.53;4972275;28;20505;-72
2022/11/18 01:40:32;;;;;;;4.60;2.00;;;;;;;5.38;100.00;93767.50;4971444;28;20064;-72
2022/11/18 01:42:58;;;;;;;3.47;1.95;;;;;;;5.37;100.00;93765.97;4971742;28;20096;-72
2022/11/18 01:45:30;;;;;;;4.88;2.17;;;;;;;5.30;100.00;93760.31;4968424;28;20055;-72
2022/11/18 01:48:12;;;;;;;6.90;1.95;;;;;;;5.28;100.00;93762.41;4970636;28;20039;-72
2022/11/18 01:50:43;;;;;;;5.20;2.20;;;;;;;5.32;100.00;93767.84;4967621;28;20077;-71
2022/11/18 01:53:15;;;;;;;4.50;2.30;;;;;;;5.37;100.00;93776.41;4969325;28;20466;-71
2022/11/18 01:55:45;;;;;;;4.90;2.30;;;;;;;5.38;100.00;93788.34;4956358;28;20047;-71
2022/11/18 01:58:35;;;;;;;4.43;2.22;;;;;;;5.35;100.00;93788.91;4971958;28;20089;-72
2022/11/18 02:01:03;;;;;;;5.65;2.30;;;;;;;5.37;100.00;93794.66;4971025;28;20047;-72
2022/11/18 02:03:29;;;;;;;4.63;1.88;;;;;;;5.38;100.00;93798.78;4971750;28;20500;-72
2022/11/18 02:05:54;;;;;;;8.90;2.20;;;;;;;5.47;100.00;93800.78;4965984;28;20046;-72
2022/11/18 02:08:21;;;;;;;4.97;2.72;;;;;;;5.42;100.00;93798.25;4967119;28;20473;-72
2022/11/18 02:10:47;;;;;;;4.03;2.10;;;;;;;5.42;100.00;93809.47;4970485;28;20035;-72
2022/11/18 02:13:14;;;;;;;4.43;2.38;;;;;;;5.45;100.00;93808.13;4970386;28;20035;-72
2022/11/18 02:15:55;;;;;;;8.77;2.85;;;;;;;5.59;100.00;93809.03;4971308;28;20053;-72
2022/11/18 02:18:38;;;;;;;4.75;2.40;;;;;;;5.49;100.00;93803.91;4970419;28;20094;-72
2022/11/18 02:21:29;;;;;;;7.63;2.60;;;;;;;5.53;100.00;93804.91;4969904;28;20125;-71
2022/11/18 02:24:26;;;;;;;7.28;2.58;;;;;;;5.48;100.00;93808.34;4945356;28;20429;-72
2022/11/18 02:27:29;;;;;;;6.00;2.58;;;;;;;5.51;100.00;93801.78;4967978;28;20057;-71
2022/11/18 02:30:01;;;;;;;6.05;2.83;;;;;;;5.48;100.00;93803.13;4971610;28;20077;-72
2022/11/18 02:32:40;;;;;;;5.35;2.83;;;;;;;5.51;100.00;93802.56;4967688;28;20653;-71
2022/11/18 02:35:24;;;;;;;9.05;3.00;;;;;;;5.46;100.00;93799.22;4970764;28;20050;-72
2022/11/18 02:38:02;;;;;;;6.30;2.73;;;;;;;5.45;100.00;93797.69;4965585;28;20514;-72
2022/11/18 02:40:32;;;;;;;8.25;3.30;;;;;;;5.40;100.00;93795.13;4970110;28;20038;-73
2022/11/18 02:43:09;;;;;;;10.90;3.22;;;;;;;5.41;100.00;93791.47;4968578;28;20086;-73
2022/11/18 02:45:37;;;;;;;8.10;3.20;;;;;;;5.40;100.00;93789.91;4970583;28;20053;-72
2022/11/18 02:48:07;;;;;;;11.07;3.42;;;;;;;5.36;100.00;93795.69;4971091;28;20047;-72
2022/11/18 02:50:34;;;;;;;9.57;3.08;;;;;;;5.30;100.00;93791.59;4969425;28;20043;-72
2022/11/18 02:53:03;;;;;;;8.07;3.05;;;;;;;5.33;100.00;93791.03;4961802;28;20055;-73
2022/11/18 02:55:32;;;;;;;7.07;3.35;;;;;;;5.34;100.00;93790.00;4956189;28;20042;-73
2022/11/18 02:58:00;;;;;;;8.27;3.42;;;;;;;5.32;100.00;93799.16;4970893;28;20039;-72
2022/11/18 03:00:26;;;;;;;7.47;3.15;;;;;;;5.30;100.00;93796.81;4971043;28;20043;-72
2022/11/18 03:02:51;;;;;;;9.25;4.00;;;;;;;5.37;100.00;93792.03;4969386;28;20042;-73
2022/11/18 03:05:35;;;;;;;6.07;2.90;;;;;;;5.40;100.00;93795.13;4967554;28;20596;-73
2022/11/18 03:08:09;;;;;;;7.93;3.30;;;;;;;5.38;100.00;93793.56;4970829;28;20128;-73
2022/11/18 03:10:39;;;;;;;;;;;;;;;5.45;100.00;93789.88;4969960;28;20452;-72
2022/11/18 03:13:13;;;;;;;6.63;2.47;;;;;;;5.47;100.00;93790.34;4956027;28;20063;-72
2022/11/18 03:15:50;;;;;;;8.68;2.72;;;;;;;5.43;100.00;93784.16;4970055;28;20047;-72
2022/11/18 03:18:39;;;;;;;6.43;2.55;;;;;;;5.40;100.00;93789.91;4970965;28;20046;-73
2022/11/18 03:21:38;;;;;;;5.80;2.35;;;;;;;5.45;100.00;93792.47;4974409;28;20047;-73
2022/11/18 03:24:12;;;;;;;4.88;2.25;;;;;;;5.46;100.00;93783.59;4959837;28;20118;-72
2022/11/18 03:26:42;;;;;;;5.47;2.25;;;;;;;5.43;100.00;93789.34;4971243;28;20519;-73
2022/11/18 03:29:33;;;;;;;6.82;2.20;;;;;;;5.38;100.00;93788.34;4973326;28;20039;-72
2022/11/18 03:32:09;;;;;;;3.00;1.85;;;;;;;5.38;100.00;93793.56;4970527;28;20042;-73
2022/11/18 03:34:46;;;;;;;4.75;2.00;;;;;;;5.41;100.00;93796.69;4966958;28;20488;-73
2022/11/18 03:37:14;;;;;;;4.55;2.10;;;;;;;5.35;100.00;93811.63;4974244;28;20082;-73
2022/11/18 03:39:45;;;;;;;6.13;2.35;;;;;;;5.35;100.00;93815.00;4974430;28;20085;-73
2022/11/18 03:42:17;;;;;;;8.18;2.40;;;;;;;5.34;100.00;93812.69;4967453;28;20039;-73
2022/11/18 03:44:49;;;;;;;5.63;2.40;;;;;;;5.35;100.00;93825.44;4972978;28;20050;-73
2022/11/18 03:47:28;;;;;;;6.63;2.10;;;;;;;5.35;100.00;93820.22;4971819;28;20058;-72
2022/11/18 03:50:02;;;;;;;6.38;1.60;;;;;;;5.38;100.00;93824.88;4953938;28;20062;-72
2022/11/18 03:52:33;;;;;;;5.82;1.92;;;;;;;5.40;100.00;93834.28;4970691;28;20047;-72
2022/11/18 03:55:03;;;;;;;8.55;1.90;;;;;;;5.43;100.00;93836.31;4963222;28;20083;-73
2022/11/18 03:57:51;;;;;;;3.42;1.75;;;;;;;5.44;100.00;93827.44;4974036;28;20035;-73
2022/11/18 04:00:18;;;;;;;3.92;1.52;;;;;;;5.49;100.00;93840.44;4974169;28;20135;-72
2022/11/18 04:02:45;;;;;;;3.45;1.67;;;;;;;5.52;100.00;93850.31;4973830;28;20425;-73
2022/11/18 04:05:13;;;;;;;3.17;1.30;;;;;;;5.59;100.00;93853.38;4967338;28;20509;-72
2022/11/18 04:07:44;;;;;;;7.32;1.00;;;;;;;5.64;100.00;93868.19;4972651;28;20054;-72
2022/11/18 04:10:18;;;;;;;1.63;1.10;;;;;;;5.60;100.00;93867.97;4973859;28;20125;-72
2022/11/18 04:13:00;;;;;;;;;;;;;;;5.58;100.00;93861.50;4973313;28;20448;-72
2022/11/18 04:15:27;;;;;;;2.05;0.98;;;;;;;5.54;100.00;93858.63;4969626;28;19922;-72
2022/11/18 04:17:52;;;;;;;1.65;0.90;;;;;;;5.54;100.00;93859.41;4970288;28;20043;-73
2022/11/18 04:20:20;;;;;;;1.23;0.85;;;;;;;5.62;100.00;93852.81;4973424;28;20093;-72
2022/11/18 04:22:46;;;;;;;7.68;1.20;;;;;;;5.60;100.00;93856.75;4964480;28;20039;-72
2022/11/18 04:25:11;;;;;;;1.88;0.82;;;;;;;5.58;100.00;93853.66;4961309;28;20428;-72
2022/11/18 04:27:37;;;;;;;3.90;1.00;;;;;;;5.62;100.00;93865.88;4965534;28;20051;-72
2022/11/18 04:30:05;;;;;;;1.90;0.82;;;;;;;5.60;100.00;93857.53;4972702;28;20054;-72
2022/11/18 04:32:31;;;;;;;3.47;1.02;;;;;;;5.60;100.00;93862.75;4973607;28;20043;-72
2022/11/18 04:34:56;;;;;;;1.38;1.00;;;;;;;5.51;100.00;93854.75;4970503;28;20042;-72
2022/11/18 04:37:22;;;;;;;3.58;1.13;;;;;;;5.61;100.00;93859.09;4972985;28;20030;-72
2022/11/18 04:39:47;;;;;;;2.75;0.90;;;;;;;5.61;100.00;93853.88;4973148;28;20038;-72
2022/11/18 04:42:13;;;;;;;2.60;0.90;;;;;;;5.66;100.00;93851.22;4971339;28;20043;-73
2022/11/18 04:44:38;;;;;;;2.80;1.10;;;;;;;5.56;100.00;93856.56;4960325;28;20051;-72
2022/11/18 04:47:05;;;;;;;4.78;1.00;;;;;;;5.53;100.00;93857.06;4971660;28;20082;-72
2022/11/18 04:49:32;;;;;;;3.17;0.80;;;;;;;5.54;100.00;93843.00;4973207;28;20062;-73
2022/11/18 04:51:58;;;;;;;3.50;0.80;;;;;;;5.57;100.00;93852.88;4966783;28;20382;-72
2022/11/18 04:54:25;;;;;;;1.55;0.80;;;;;;;5.51;100.00;93849.53;4971769;28;20098;-72
2022/11/18 04:56:51;;;;;;;1.20;0.68;;;;;;;5.50;100.00;93841.97;4959356;28;20043;-73
2022/11/18 04:59:20;;;;;;;2.38;0.77;;;;;;;5.51;100.00;93848.75;4967887;28;20047;-73
2022/11/18 05:01:47;;;;;;;0.40;0.40;;;;;;;5.55;100.00;93854.97;4974407;28;20627;-73
2022/11/18 05:04:14;;;;;;;3.00;0.43;;;;;;;5.56;100.00;93846.09;4970379;28;20078;-73
2022/11/18 05:06:41;;;;;;;1.02;0.50;;;;;;;5.52;100.00;93840.66;4959329;28;20055;-73
2022/11/18 05:09:07;;;;;;;1.10;0.70;;;;;;;5.48;100.00;93834.44;4960987;28;20067;-72
2022/11/18 05:14:17;;;;;;;1.75;0.70;;;;;;;5.61;100.00;93837.44;4969441;28;20046;-72
2022/11/18 05:16:43;;;;;;;3.25;0.90;;;;;;;5.63;100.00;93849.16;4970984;28;20043;-73
2022/11/18 05:19:09;;;;;;;1.48;0.90;;;;;;;5.60;100.00;93841.88;4972608;28;20493;-72
2022/11/18 05:21:36;;;;;;;3.10;0.68;;;;;;;5.58;100.00;93844.00;4972748;28;20050;-72
2022/11/18 05:24:02;;;;;;;0.68;0.63;;;;;;;5.62;100.00;93833.78;4965985;28;20042;-72
2022/11/18 05:26:28;;;;;;;4.15;0.77;;;;;;;5.64;100.00;93848.09;4957800;28;20051;-72
2022/11/18 05:28:53;;;;;;;0.88;0.80;;;;;;;5.66;100.00;93843.38;4971234;28;20074;-72
2022/11/18 05:31:19;;;;;;;0.93;0.75;;;;;;;5.65;100.00;93849.66;4972409;28;20058;-71
2022/11/18 05:33:45;;;;;;;2.42;1.08;;;;;;;5.55;100.00;93839.31;4972587;28;20046;-72
2022/11/18 05:36:13;;;;;;;4.72;0.73;;;;;;;5.61;100.00;93838.22;4971080;28;20035;-72
2022/11/18 05:38:39;;;;;;;5.50;2.13;;;;;;;5.62;100.00;93837.16;4962129;28;20133;-72
2022/11/18 05:41:06;;;;;;;0.85;0.57;;;;;;;5.64;100.00;93842.88;4968206;28;20563;-72
2022/11/18 05:43:32;;;;;;;1.73;0.90;;;;;;;5.62;100.00;93850.22;4969729;28;20122;-71
2022/11/18 05:45:58;;;;;;;3.50;0.82;;;;;;;5.58;100.00;93849.22;4971832;28;20428;-71
2022/11/18 05:48:24;;;;;;;1.98;0.80;;;;;;;5.70;100.00;93846.19;4971061;28;20046;-71
2022/11/18 05:50:51;;;;;;;6.85;3.47;;;;;;;5.57;100.00;93858.09;4972017;28;20551;-72
2022/11/18 05:53:19;;;;;;;2.50;1.60;;;;;;;5.61;100.00;93858.31;4964110;28;20057;-74
2022/11/18 05:56:09;;;;;;;9.13;3.50;;;;;;;5.57;100.00;93852.88;4962009;28;20425;-72
2022/11/18 05:58:34;;;;;;;2.35;1.40;;;;;;;5.43;100.00;93857.19;4969142;28;20046;-72
2022/11/18 06:01:04;;;;;;;5.32;3.38;;;;;;;5.53;100.00;93860.47;4970903;28;20089;-72
2022/11/18 06:03:35;;;;;;;1.63;1.20;;;;;;;5.54;100.00;93863.84;4962601;28;20075;-72
2022/11/18 06:06:04;;;;;;;0.50;0.50;;;;;;;5.54;100.00;93858.63;4963759;28;20404;-72
2022/11/18 06:08:34;;;;;;;1.63;1.13;;;;;;;5.50;100.00;93865.47;4970622;28;20101;-72
2022/11/18 06:11:00;;;;;;;0.75;0.57;;;;;;;5.49;100.00;93861.31;4971614;28;20043;-72
2022/11/18 06:13:33;;;;;;;1.48;1.10;;;;;;;5.45;100.00;93860.31;4958601;28;20094;-72
2022/11/18 06:15:59;;;;;;;1.00;0.73;;;;;;;5.40;100.00;93862.97;4962252;28;20047;-72
2022/11/18 06:18:30;;;;;;;0.70;0.60;;;;;;;5.37;100.00;93867.69;4971251;28;20042;-72
2022/11/18 06:21:04;;;;;;;1.20;0.90;;;;;;;5.40;100.00;93870.78;4971124;28;20042;-72
2022/11/18 06:23:33;;;;;;;2.53;0.93;;;;;;;5.42;100.00;93873.91;4970932;28;20054;-72
2022/11/18 06:25:59;;;;;;;2.33;1.48;;;;;;;5.46;100.00;93882.72;4969206;28;20054;-71
2022/11/18 06:28:26;;;;;;;2.17;0.73;;;;;;;5.54;100.00;93884.72;4971682;28;20051;-72
2022/11/18 06:30:52;;;;;;;1.08;0.93;;;;;;;5.57;100.00;93884.19;4970749;28;20058;-72
2022/11/18 06:33:17;;;;;;;3.65;2.13;;;;;;;5.65;100.00;93895.84;4963045;28;20500;-71
2022/11/18 06:35:43;;;;;;;3.05;1.88;;;;;;;5.64;100.00;93905.50;4963955;28;20055;-71
2022/11/18 06:38:09;;;;;;;3.75;1.20;;;;;;;5.62;100.00;93907.63;4971679;28;20047;-71
2022/11/18 06:40:36;;;;;;;2.33;1.48;;;;;;;5.60;100.00;93925.38;4977021;28;20065;-71
2022/11/18 06:48:35;;;;;;;3.30;1.67;;;;;;;5.64;100.00;93921.16;4971447;28;20418;-71
2022/11/18 06:51:04;;;;;;;4.13;2.35;;;;;;;5.63;100.00;93919.63;4966959;28;20122;-71
2022/11/18 06:53:29;;;;;;;1.52;1.20;;;;;;;5.61;100.00;93926.94;4970071;28;20039;-71
2022/11/18 06:55:55;;;;;;;1.15;0.85;;;;;;;5.64;100.00;93929.00;4969598;28;20488;-71
2022/11/18 06:58:21;;;;;;;1.50;1.02;;;;;;;5.60;100.00;93925.38;4971010;28;20500;-71
2022/11/18 07:00:46;;;;;;;2.08;1.20;;;;;;;5.62;100.00;93928.50;4972977;28;20134;-73
2022/11/18 07:03:12;;;;;;;1.00;0.90;;;;;;;5.69;100.00;93942.00;4965207;28;20409;-69
2022/11/18 07:05:37;;;;;;;6.18;1.02;;;;;;;5.83;100.00;93941.34;4956688;28;20042;-70
2022/11/18 07:08:03;;;;;;;1.88;1.15;;;;;;;5.80;100.00;93941.88;4970879;28;20058;-69
2022/11/18 07:10:28;;;;;;;5.50;1.20;;;;;;;5.80;100.00;93944.50;4971142;28;20508;-69
2022/11/18 07:12:54;;;;;;;2.03;1.10;;;;;;;5.79;100.00;93942.94;4964701;28;20063;-73
2022/11/18 07:15:19;;;;;;;2.42;1.20;;;;;;;5.82;100.00;93947.59;4967116;28;20137;-68
2022/11/18 07:17:45;;;;;;;2.05;1.20;;;;;;;5.82;100.00;93953.63;4970160;28;20101;-69
2022/11/18 07:20:10;;;;;;;15.23;5.57;;;;;;;5.88;100.00;93956.97;4971045;28;20077;-69
2022/11/18 07:22:36;;;;;;;94.95;27.63;;;;;;;5.90;100.00;93962.66;4968669;28;20481;-69
2022/11/18 07:25:01;;;;;;;5.68;2.45;;;;;;;5.93;100.00;93967.31;4968732;28;20044;-69
2022/11/18 07:27:27;;;;;;;3.28;1.75;;;;;;;5.88;100.00;93962.19;4969130;28;20043;-69
2022/11/18 07:29:52;;;;;;;3.35;2.05;;;;;;;5.93;100.00;93969.94;4970232;28;20051;-70
2022/11/18 07:32:18;;;;;;;6.03;1.75;;;;;;;5.96;100.00;93969.41;4970302;28;20055;-70
2022/11/18 07:34:44;;;;;;;5.53;2.05;;;;;;;5.98;100.00;93977.00;4969616;28;20126;-70
2022/11/18 07:37:10;;;;;;;5.25;2.20;;;;;;;6.02;100.00;93973.53;4961740;28;20058;-70
2022/11/18 07:39:35;;;;;;;4.82;2.30;;;;;;;5.98;100.00;93982.97;4969131;28;20074;-69
2022/11/18 07:42:01;;;;;;;3.95;2.30;;;;;;;5.98;100.00;93982.97;4960365;28;20066;-70
2022/11/18 07:44:26;;;;;;;2.95;1.85;;;;;;;6.01;100.00;93987.66;4967156;28;20046;-70
2022/11/18 07:46:52;;;;;;;3.67;2.00;;;;;;;6.05;100.00;93993.88;4969490;28;20046;-69
2022/11/18 07:49:17;;;;;;;3.35;1.70;;;;;;;6.17;100.00;93990.09;4970376;28;20408;-70
2022/11/18 07:51:43;;;;;;;4.38;1.83;;;;;;;6.06;100.00;93995.44;4969790;28;20412;-70
2022/11/18 07:54:11;;;;;;;5.28;2.78;;;;;;;6.21;100.00;93993.72;4970905;28;20054;-70
2022/11/18 07:56:37;;;;;;;4.22;1.90;;;;;;;6.12;100.00;93990.16;4963648;28;20041;-70
2022/11/18 07:59:03;;;;;;;5.32;2.03;;;;;;;6.17;100.00;94001.31;4970271;28;20058;-70
2022/11/18 08:01:29;;;;;;;7.15;3.25;;;;;;;6.14;100.00;94001.09;4965689;28;20042;-70
2022/11/18 08:03:57;;;;;;;2.85;1.90;;;;;;;6.19;100.00;94003.66;4970328;28;20493;-69
2022/11/18 08:06:22;;;;;;;3.65;1.60;;;;;;;6.18;100.00;94007.34;4963986;28;20506;-69
2022/11/18 08:08:48;;;;;;;4.50;1.48;;;;;;;6.16;100.00;94005.00;4973446;28;20054;-68
2022/11/18 08:11:16;;;;;;;4.97;1.77;;;;;;;6.12;100.00;94013.66;4959415;28;20058;-70
2022/11/18 08:13:42;;;;;;;2.10;1.10;;;;;;;6.15;100.00;94013.09;4970461;28;20059;-69
2022/11/18 08:16:13;;;;;;;2.28;1.17;;;;;;;6.13;100.00;94010.00;4972753;28;20074;-69
2022/11/18 08:18:39;;;;;;;2.17;1.20;;;;;;;6.15;100.00;94007.88;4967129;28;20050;-68
2022/11/18 08:21:05;;;;;;;2.47;1.30;;;;;;;6.20;100.00;94010.44;4966161;28;20059;-68
2022/11/18 08:23:31;;;;;;;1.73;1.10;;;;;;;6.18;100.00;94012.56;4973994;28;20424;-68
2022/11/18 08:26:08;;;;;;;1.25;0.88;;;;;;;6.22;100.00;94013.53;4970666;28;20062;-69
2022/11/18 08:28:35;;;;;;;2.55;1.27;;;;;;;6.16;100.00;94014.66;4975559;28;20612;-68
2022/11/18 08:31:08;;;;;;;2.95;1.30;;;;;;;6.18;100.00;94017.78;4973133;28;20058;-68
2022/11/18 08:33:34;;;;;;;2.67;1.23;;;;;;;6.17;100.00;94021.44;4970692;28;20047;-68
2022/11/18 08:36:05;;;;;;;2.70;1.70;;;;;;;6.14;100.00;94022.00;4960489;28;20043;-69
2022/11/18 08:38:31;;;;;;;2.38;1.38;;;;;;;6.14;100.00;94024.63;4973018;28;20405;-68
2022/11/18 08:40:57;;;;;;;1.95;1.20;;;;;;;6.17;100.00;94027.44;4971039;28;20113;-68
2022/11/18 08:43:22;;;;;;;3.92;1.15;;;;;;;6.15;100.00;94028.75;4954497;28;20050;-68
2022/11/18 08:45:48;;;;;;;1.65;1.10;;;;;;;5.99;100.00;94042.00;4959164;28;20046;-68
2022/11/18 08:48:14;;;;;;;2.65;1.20;;;;;;;5.94;100.00;94036.78;4973203;28;20543;-68
2022/11/18 08:50:39;;;;;;;3.55;1.40;;;;;;;5.91;100.00;94039.94;4970889;28;20074;-68
2022/11/18 08:53:05;;;;;;;1.33;0.98;;;;;;;5.84;100.00;94039.50;4972038;28;20604;-69
2022/11/18 08:55:30;;;;;;;4.78;1.67;;;;;;;5.88;100.00;94040.50;4970330;28;20053;-68
2022/11/18 08:57:56;;;;;;;2.55;1.20;;;;;;;5.87;100.00;94038.94;4972794;28;20042;-69
2022/11/18 09:00:21;;;;;;;5.90;3.28;;;;;;;5.88;100.00;94040.50;4972430;28;20489;-69
2022/11/18 09:02:47;;;;;;;2.10;1.30;;;;;;;5.89;100.00;94047.28;4971532;28;20047;-68
2022/11/18 09:05:13;;;;;;;2.55;1.70;;;;;;;5.90;100.00;94054.84;4961942;28;20081;-68
2022/11/18 09:07:38;;;;;;;1.83;1.30;;;;;;;5.83;100.00;94058.81;4966526;28;20117;-68
2022/11/18 09:10:04;;;;;;;3.38;1.45;;;;;;;5.85;100.00;94057.50;4971936;28;20059;-68
2022/11/18 09:12:30;;;;;;;5.25;1.63;;;;;;;5.82;100.00;94062.47;4972902;28;20050;-68
2022/11/18 09:14:55;;;;;;;3.80;2.25;;;;;;;5.83;100.00;94058.81;4971306;28;20580;-69
2022/11/18 09:17:21;;;;;;;2.28;1.40;;;;;;;5.89;100.00;94068.19;4972331;28;20046;-69
2022/11/18 09:20:07;;;;;;;3.53;1.90;;;;;;;5.92;100.00;94067.63;4964701;28;20085;-72
2022/11/18 09:22:36;;;;;;;2.65;1.52;;;;;;;5.99;100.00;94068.09;4969557;28;20035;-69
2022/11/18 09:25:02;;;;;;;3.38;1.75;;;;;;;5.95;100.00;94072.28;4969997;28;20043;-70
2022/11/18 09:27:27;;;;;;;3.58;1.80;;;;;;;5.97;100.00;94075.44;4972137;28;20047;-69
2022/11/18 09:29:53;;;;;;;4.85;2.08;;;;;;;5.92;100.00;94078.06;4970130;28;20493;-69
2022/11/18 09:32:18;;;;;;;4.03;2.17;;;;;;;5.95;100.00;94082.72;4972696;28;20572;-69
2022/11/18 09:34:44;;;;;;;4.40;1.88;;;;;;;5.85;100.00;94093.28;4969022;28;20039;-69
2022/11/18 09:37:09;;;;;;;6.95;2.00;;;;;;;5.85;100.00;94085.44;4967711;28;20412;-69
2022/11/18 09:39:35;;;;;;;3.92;1.92;;;;;;;5.88;100.00;94092.72;4972267;28;20049;-69
2022/11/18 09:42:22;;;;;;;3.70;2.00;;;;;;;5.82;100.00;94093.78;4963519;28;20055;-69
2022/11/18 09:45:06;;;;;;;4.63;2.20;;;;;;;5.87;100.00;94096.38;4955878;28;20043;-69
2022/11/18 09:47:34;;;;;;;3.80;2.30;;;;;;;5.85;100.00;94098.50;4971647;28;20513;-69
2022/11/18 09:50:03;;;;;;;5.32;2.50;;;;;;;5.87;100.00;94088.53;4972145;28;20043;-69
2022/11/18 09:52:38;;;;;;;5.13;2.47;;;;;;;5.83;100.00;94105.81;4970609;28;20050;-69
2022/11/18 09:55:12;;;;;;;6.53;2.05;;;;;;;5.83;100.00;94111.03;4967751;28;20050;-69
2022/11/18 09:57:39;;;;;;;4.07;2.38;;;;;;;5.77;100.00;94109.50;4969597;28;20417;-69
2022/11/18 10:00:14;;;;;;;5.93;2.50;;;;;;;5.80;100.00;94114.19;4970560;28;20050;-69
2022/11/18 10:02:49;;;;;;;4.25;2.42;;;;;;;5.79;100.00;94117.84;4970644;28;20422;-69
2022/11/18 10:05:22;;;;;;;4.00;2.30;;;;;;;5.66;100.00;94117.41;4969386;28;20066;-69
2022/11/18 10:07:59;;;;;;;7.40;2.60;;;;;;;5.79;100.00;94110.00;4971054;28;20057;-69
2022/11/18 10:10:37;;;;;;;5.90;2.00;;;;;;;5.77;100.00;94117.34;4966384;28;20046;-70
2022/11/18 10:13:17;;;;;;;4.50;1.92;;;;;;;5.56;100.00;94122.72;4970827;28;20070;-70
2022/11/18 10:16:28;;;;;;;3.60;1.80;;;;;;;5.62;100.00;94120.84;4956717;28;20043;-70
2022/11/18 10:19:03;;;;;;;4.40;1.67;;;;;;;5.49;100.00;94117.03;4952747;29;20052;-70
2022/11/18 10:21:53;;;;;;;3.15;1.50;;;;;;;5.57;100.00;94124.25;4959350;28;20072;-70
2022/11/18 10:24:21;;;;;;;2.78;1.58;;;;;;;5.53;100.00;94118.81;4972480;28;20051;-70
2022/11/18 10:26:47;;;;;;;3.13;1.60;;;;;;;5.43;100.00;94102.44;4964390;28;20042;-70
2022/11/18 10:29:12;;;;;;;2.95;1.67;;;;;;;5.50;100.00;94119.34;4972381;28;20058;-70
2022/11/18 10:32:00;;;;;;;4.00;1.60;;;;;;;5.38;100.00;94122.28;4973260;28;20043;-71
2022/11/18 10:34:25;;;;;;;3.08;1.73;;;;;;;5.40;100.00;94121.25;4964966;28;20098;-71
2022/11/18 10:37:04;;;;;;;4.13;2.08;;;;;;;5.35;100.00;94117.59;4990328;28;20031;-71
2022/11/18 10:39:30;;;;;;;3.65;1.88;;;;;;;5.42;100.00;94106.09;4997080;28;20034;-71
2022/11/18 10:42:04;;;;;;;7.80;2.00;;;;;;;5.38;100.00;94108.47;4988398;28;20035;-71
2022/11/18 10:44:34;;;;;;;5.18;1.83;;;;;;;5.37;100.00;94107.69;4978740;28;20090;-71
2022/11/18 10:47:23;;;;;;;4.30;1.90;;;;;;;5.35;100.00;94112.38;4977913;28;20039;-70
2022/11/18 10:49:50;;;;;;;5.72;2.30;;;;;;;5.31;100.00;94113.97;4978142;28;20051;-71
2022/11/18 10:52:16;;;;;;;4.22;1.63;;;;;;;5.30;100.00;94109.03;4989243;28;20034;-71
2022/11/18 10:54:42;;;;;;;4.18;1.70;;;;;;;5.40;100.00;94108.19;4983350;28;20083;-71
2022/11/18 10:57:18;;;;;;;6.03;2.35;;;;;;;5.33;100.00;94119.72;4972326;28;20051;-71
2022/11/18 10:59:53;;;;;;;10.13;2.58;;;;;;;5.37;100.00;94110.31;4971936;28;20061;-72
2022/11/18 11:02:21;;;;;;;5.65;2.55;;;;;;;5.30;100.00;94109.81;4971051;28;20102;-71
2022/11/18 11:04:49;;;;;;;6.10;2.10;;;;;;;5.36;100.00;94129.59;4965690;28;20126;-70
2022/11/18 11:07:33;;;;;;;4.30;2.03;;;;;;;5.28;100.00;94127.56;4975175;28;20097;-69
2022/11/18 11:10:05;;;;;;;4.53;2.08;;;;;;;5.27;100.00;94126.03;4969861;28;20046;-69
2022/11/18 11:12:33;;;;;;;5.07;2.20;;;;;;;5.31;100.00;94124.41;4971391;28;20047;-70
2022/11/18 11:15:04;;;;;;;5.53;2.13;;;;;;;5.24;100.00;94116.09;4965842;28;20628;-69
2022/11/18 11:17:41;;;;;;;5.65;1.58;;;;;;;5.22;100.00;94110.38;4969457;28;20054;-71
2022/11/18 11:20:17;;;;;;;3.75;1.88;;;;;;;5.22;100.00;94107.78;4967349;28;20409;-70
2022/11/18 11:22:44;;;;;;;3.63;1.50;;;;;;;5.23;100.00;94109.34;4972313;28;20046;-71
2022/11/18 11:25:15;;;;;;;2.55;1.40;;;;;;;5.36;100.00;94108.75;4968661;28;20066;-70
2022/11/18 11:28:19;;;;;;;3.15;1.65;;;;;;;5.40;100.00;94119.41;4968178;28;20517;-71
2022/11/18 11:31:00;;;;;;;3.35;1.70;;;;;;;5.48;100.00;94116.22;4945036;28;20051;-70
2022/11/18 11:33:26;;;;;;;4.57;2.05;;;;;;;5.50;100.00;94123.78;4976947;28;20110;-69
2022/11/18 11:36:08;;;;;;;3.63;1.85;;;;;;;5.50;100.00;94123.78;4972440;28;20039;-70
2022/11/18 11:38:39;;;;;;;4.85;2.10;;;;;;;5.49;100.00;94117.03;4972584;28;20057;-71
2022/11/18 11:41:20;;;;;;;3.25;1.80;;;;;;;5.49;100.00;94120.41;4973517;28;20116;-71
2022/11/18 11:43:53;;;;;;;12.43;2.38;;;;;;;5.52;100.00;94121.69;4978795;28;20404;-70
2022/11/18 11:46:36;;;;;;;6.38;1.92;;;;;;;5.53;100.00;94123.22;4983077;28;20058;-71
2022/11/18 11:49:22;;;;;;;3.80;1.95;;;;;;;5.47;100.00;94124.31;4975637;28;20035;-72
2022/11/18 11:51:57;;;;;;;4.70;1.80;;;;;;;5.50;100.00;94131.59;4970928;28;20181;-72
2022/11/18 11:54:49;;;;;;;7.10;1.80;;;;;;;5.48;100.00;94131.09;4969812;28;20039;-70
2022/11/18 11:57:28;;;;;;;3.10;1.67;;;;;;;5.44;100.00;94124.88;4962350;28;20054;-71
2022/11/18 12:00:04;;;;;;;6.65;1.73;;;;;;;5.45;100.00;94139.47;4972362;28;20046;-70